Normandie — FNNO — position and weather

sailwx.info

Track history (hours):
 
Tides and Currents Weather Stations Pressure Air Temp Water Temp Dewpoint Dewpoint Depression Visibility Wind Speed Wind Dir Waves Ship Positions

Normandie

Operator: Brittany Ferries

Last reported at 2019-May-20 02:25 UTC. Time now 2019-May-20 03:00 UTC.
Position N 50°10' W 000°41'.

Length 161 m; beam 27 m.

Type: Ship. MMSI: 227273000.

Date/timePositionNaut miles runAvg speedWind from/ knotsBaromVisibWave heightAir tempDewpointWater temp
2019-May-20 02:25N 50°10' W 000°41'712.0
2019-May-20 01:51N 50°04' W 000°37'412.3
2019-May-20 01:30N 50°00' W 000°33'612.0
2019-May-20 01:00N 49°55' W 000°29'611.8
2019-May-20 00:30N 49°50' W 000°26'611.4
2019-May-20 00:00N 49°44' W 000°22'611.0
2019-May-19 23:30N 49°39' W 000°20'611.2
2019-May-19 23:01N 49°33' W 000°19'611.2
2019-May-19 22:30N 49°28' W 000°17'511.0
2019-May-19 22:00N 49°23' W 000°16'510.5
2019-May-19 21:30N 49°17' W 000°15'0 0.1
2019-May-19 21:00N 49°17' W 000°15'0 0.0
2019-May-19 20:31N 49°17' W 000°15'0 0.0
2019-May-19 20:00N 49°17' W 000°15'0 0.0
2019-May-19 19:31N 49°17' W 000°15'3 6.9
2019-May-19 19:00N 49°21' W 000°14'918.0
2019-May-19 18:30N 49°29' W 000°20'918.2
2019-May-19 18:00N 49°38' W 000°25'918.1
2019-May-19 17:31N 49°46' W 000°29'918.8
2019-May-19 17:01N 49°55' W 000°33'1018.4
2019-May-19 16:29N 50°04' W 000°40'2018.3
2019-May-19 15:25N 50°22' W 000°52'918.8
2019-May-19 14:57N 50°30' W 000°55'818.9
2019-May-19 14:30N 50°38' W 000°59'917.6
2019-May-19 14:00N 50°46' W 001°06'3 5.3
2019-May-19 13:30N 50°49' W 001°06'0 0.0
2019-May-19 13:00N 50°49' W 001°06'0 0.0
2019-May-19 12:30N 50°49' W 001°06'0 0.5
2019-May-19 12:00N 50°49' W 001°06'611.8
2019-May-19 11:31N 50°43' W 001°02'1019.1
2019-May-19 11:00N 50°35' W 000°56'1019.5
2019-May-19 10:30N 50°25' W 000°52'1719.6
2019-May-19 09:38N 50°09' W 000°45'519.2
2019-May-19 09:23N 50°04' W 000°43'718.8
2019-May-19 09:00N 49°57' W 000°39'918.5
2019-May-19 08:30N 49°49' W 000°34'918.5
2019-May-19 08:00N 49°40' W 000°28'918.6
2019-May-19 07:30N 49°32' W 000°22'918.3
2019-May-19 07:00N 49°23' W 000°17'612.3
2019-May-19 06:30N 49°17' W 000°15'0 0.0
2019-May-19 06:00N 49°17' W 000°15'0 0.0
2019-May-19 05:30N 49°17' W 000°15'0 0.0
2019-May-19 05:00N 49°17' W 000°15'0 0.2
2019-May-19 04:30N 49°17' W 000°15'611.4
2019-May-19 04:01N 49°23' W 000°15'917.4
2019-May-19 03:31N 49°31' W 000°18'917.6
2019-May-19 03:01N 49°40' W 000°23'917.2
2019-May-19 02:31N 49°48' W 000°27'816.8
2019-May-19 02:01N 49°56' W 000°32'815.4
2019-May-19 01:31N 50°03' W 000°37'815.1
2019-May-19 01:00N 50°09' W 000°42'815.1
2019-May-19 00:30N 50°17' W 000°46'1215.8
2019-May-18 23:45N 50°28' W 000°52'415.4
2019-May-18 23:31N 50°31' W 000°54'815.5
2019-May-18 23:01N 50°38' W 000°58'714.9
2019-May-18 22:30N 50°45' W 001°05'4 7.9
2019-May-18 22:01N 50°49' W 001°06'0 0.0
2019-May-18 21:31N 50°49' W 001°06'0 0.0
2019-May-18 21:01N 50°49' W 001°06'0 0.0
2019-May-18 20:30N 50°49' W 001°06'1 1.6
2019-May-18 20:00N 50°48' W 001°07'713.3
2019-May-18 19:30N 50°42' W 001°02'917.0
2019-May-18 19:00N 50°35' W 000°56'816.1
2019-May-18 18:30N 50°27' W 000°52'816.7
2019-May-18 18:00N 50°19' W 000°48'1116.9
2019-May-18 17:20N 50°09' W 000°42'719.4
2019-May-18 17:00N 50°02' W 000°37'1019.6
2019-May-18 16:30N 49°53' W 000°32'1019.8
2019-May-18 16:00N 49°44' W 000°26'1019.4
2019-May-18 15:30N 49°35' W 000°21'918.8
2019-May-18 15:00N 49°26' W 000°17'816.7
2019-May-18 14:30N 49°18' W 000°15'1 1.4
2019-May-18 14:00N 49°17' W 000°15'0 0.0
2019-May-18 13:30N 49°17' W 000°15'0 0.0
2019-May-18 13:00N 49°17' W 000°15'5 9.1
2019-May-18 12:30N 49°22' W 000°14'917.9
2019-May-18 12:00N 49°31' W 000°17'917.2
2019-May-18 11:30N 49°39' W 000°21'917.5
2019-May-18 11:00N 49°47' W 000°26'917.8
2019-May-18 10:30N 49°55' W 000°31'4018.9
2019-May-18 08:24N 50°32' W 000°56'718.5
2019-May-18 08:01N 50°39' W 000°59'917.7
2019-May-18 07:30N 50°47' W 001°06'2 4.2
2019-May-18 07:00N 50°49' W 001°06'0 0.0
2019-May-18 06:30N 50°49' W 001°06'0 0.0
2019-May-18 06:00N 50°49' W 001°06'1 1.5
2019-May-18 05:30N 50°48' W 001°07'612.6
2019-May-18 05:00N 50°43' W 001°01'713.9
2019-May-18 04:30N 50°37' W 000°57'714.8
2019-May-18 04:00N 50°30' W 000°53'3111.7
2019-May-18 01:22N 50°00' W 000°39'412.1
2019-May-18 01:00N 49°56' W 000°37'611.8
2019-May-18 00:30N 49°51' W 000°34'611.5
2019-May-18 00:00N 49°45' W 000°32'611.1
2019-May-17 23:30N 49°40' W 000°30'611.1
2019-May-17 23:00N 49°34' W 000°27'510.8
2019-May-17 22:30N 49°30' W 000°23'510.6
2019-May-17 22:00N 49°25' W 000°18'510.7
2019-May-17 21:30N 49°21' W 000°14'3 6.6
2019-May-17 21:00N 49°17' W 000°15'0 0.0
2019-May-17 20:30N 49°17' W 000°15'0 0.0
2019-May-17 20:00N 49°17' W 000°15'0 0.0
2019-May-17 19:30N 49°17' W 000°15'713.3
2019-May-17 19:00N 49°24' W 000°15'1020.2
2019-May-17 18:30N 49°34' W 000°19'1021.0
2019-May-17 18:00N 49°43' W 000°25'1121.2
2019-May-17 17:30N 49°53' W 000°31'3619.8
2019-May-17 15:40N 50°27' W 000°53'318.4
2019-May-17 15:30N 50°30' W 000°53'918.1
2019-May-17 15:00N 50°38' W 000°58'815.6
2019-May-17 14:31N 50°45' W 001°05'4 7.8
2019-May-17 14:00N 50°49' W 001°06'0 0.0
2019-May-17 13:30N 50°49' W 001°06'0 0.0
2019-May-17 13:00N 50°49' W 001°06'0 0.0
2019-May-17 12:30N 50°49' W 001°06'0 0.2
2019-May-17 12:00N 50°49' W 001°06'611.5
2019-May-17 11:30N 50°43' W 001°03'918.7
2019-May-17 11:00N 50°35' W 000°56'1019.3
2019-May-17 10:30N 50°27' W 000°48'2518.7
2019-May-17 09:10N 50°03' W 000°35'318.4
2019-May-17 09:00N 50°00' W 000°33'918.8
2019-May-17 08:30N 49°51' W 000°29'1019.3
2019-May-17 08:00N 49°42' W 000°25'1019.2
2019-May-17 07:30N 49°33' W 000°21'919.0
2019-May-17 07:00N 49°24' W 000°16'713.3
2019-May-17 06:30N 49°17' W 000°15'0 0.0
2019-May-17 06:00N 49°17' W 000°15'0 0.0
2019-May-17 05:30N 49°17' W 000°15'0 0.0
2019-May-17 05:00N 49°17' W 000°15'0 0.2
2019-May-17 04:31N 49°17' W 000°15'714.9
2019-May-17 04:01N 49°25' W 000°15'917.1
2019-May-17 03:31N 49°33' W 000°19'917.1
2019-May-17 03:00N 49°41' W 000°25'917.2
2019-May-17 02:30N 49°48' W 000°31'1516.9
2019-May-17 01:38N 50°02' W 000°40'216.4
2019-May-17 01:30N 50°04' W 000°41'714.9
2019-May-17 01:00N 50°11' W 000°45'1715.3
2019-May-16 23:52N 50°27' W 000°53'515.1
2019-May-16 23:30N 50°33' W 000°55'815.4
2019-May-16 23:00N 50°40' W 000°59'713.8
2019-May-16 22:30N 50°46' W 001°05'3 6.2
2019-May-16 22:00N 50°49' W 001°06'0 0.0
2019-May-16 21:30N 50°49' W 001°06'0 0.0
2019-May-16 21:00N 50°49' W 001°06'0 0.0
2019-May-16 20:30N 50°49' W 001°06'2 3.6
2019-May-16 20:00N 50°47' W 001°06'917.2
2019-May-16 19:31N 50°39' W 000°59'1019.5
2019-May-16 19:01N 50°30' W 000°55'1019.0
2019-May-16 18:31N 50°21' W 000°50'1019.1
2019-May-16 18:01N 50°12' W 000°46'918.5
2019-May-16 17:31N 50°03' W 000°40'918.4
2019-May-16 17:00N 49°55' W 000°35'918.3
2019-May-16 16:31N 49°46' W 000°30'918.4
2019-May-16 16:01N 49°38' W 000°26'918.8
2019-May-16 15:31N 49°29' W 000°20'918.6
2019-May-16 15:01N 49°20' W 000°14'3 6.1
2019-May-16 14:30N 49°17' W 000°15'0 0.0
2019-May-16 14:00N 49°17' W 000°15'0 0.0
2019-May-16 13:30N 49°17' W 000°15'0 0.0
2019-May-16 13:00N 49°17' W 000°15'3 5.4
2019-May-16 12:31N 49°20' W 000°14'918.3
2019-May-16 12:00N 49°29' W 000°20'1019.5
2019-May-16 11:30N 49°38' W 000°25'1019.7
2019-May-16 11:00N 49°47' W 000°30'1019.3
2019-May-16 10:30N 49°56' W 000°34'1019.5
2019-May-16 10:00N 50°06' W 000°39'1019.7
2019-May-16 09:30N 50°15' W 000°43'1019.8
2019-May-16 09:00N 50°24' W 000°48'1020.0
2019-May-16 08:30N 50°34' W 000°53'918.8
2019-May-16 08:01N 50°42' W 001°01'714.5
2019-May-16 07:30N 50°48' W 001°07'1 1.7
2019-May-16 07:00N 50°49' W 001°06'0 0.0
2019-May-16 06:30N 50°49' W 001°06'0 0.0
2019-May-16 06:00N 50°49' W 001°06'1 1.3
2019-May-16 05:31N 50°48' W 001°07'611.2
2019-May-16 05:00N 50°44' W 001°02'815.2
2019-May-16 04:30N 50°37' W 000°58'713.9
2019-May-16 04:00N 50°30' W 000°54'610.9
2019-May-16 03:30N 50°25' W 000°52'611.1
2019-May-16 03:00N 50°19' W 000°49'611.1
2019-May-16 02:30N 50°14' W 000°48'611.2
2019-May-16 02:00N 50°08' W 000°47'611.5
2019-May-16 01:30N 50°03' W 000°44'611.6
2019-May-16 01:00N 49°57' W 000°41'611.7
2019-May-16 00:30N 49°52' W 000°37'611.8
2019-May-16 00:00N 49°47' W 000°33'611.6
2019-May-15 23:30N 49°42' W 000°29'611.2
2019-May-15 23:00N 49°37' W 000°25'611.6
2019-May-15 22:30N 49°32' W 000°21'611.6
2019-May-15 22:00N 49°26' W 000°17'611.3
2019-May-15 21:30N 49°21' W 000°15'4 6.8
2019-May-15 20:58N 49°17' W 000°15'0 0.0
2019-May-15 20:28N 49°17' W 000°15'0 0.0
2019-May-15 19:58N 49°17' W 000°15'0 0.0
2019-May-15 19:28N 49°17' W 000°15'0 0.0
2019-May-15 18:58N 49°17' W 000°15'0 0.0
2019-May-15 18:28N 49°17' W 000°15'0 0.0
2019-May-15 17:58N 49°17' W 000°15'0 0.0
2019-May-15 17:28N 49°17' W 000°15'0 0.0
2019-May-15 16:58N 49°17' W 000°15'0 0.0
2019-May-15 16:28N 49°17' W 000°15'0 0.0
2019-May-15 15:58N 49°17' W 000°15'0 0.0
2019-May-15 15:28N 49°17' W 000°15'0 0.0
2019-May-15 14:58N 49°17' W 000°15'0 0.0
2019-May-15 14:28N 49°17' W 000°15'0 0.0
2019-May-15 13:58N 49°17' W 000°15'0 0.0
2019-May-15 13:28N 49°17' W 000°15'0 0.2
2019-May-15 13:00N 49°17' W 000°15'612.2
2019-May-15 12:30N 49°23' W 000°15'1019.3
2019-May-15 12:00N 49°33' W 000°19'1019.3
2019-May-15 11:30N 49°42' W 000°25'1019.0
2019-May-15 11:00N 49°51' W 000°29'918.9
2019-May-15 10:30N 49°60' W 000°33'1019.1
2019-May-15 10:00N 50°09' W 000°37'918.9
2019-May-15 09:30N 50°17' W 000°44'1019.5
2019-May-15 08:59N 50°27' W 000°51'919.3
2019-May-15 08:30N 50°35' W 000°55'918.0
2019-May-15 08:00N 50°43' W 001°02'612.0
2019-May-15 07:30N 50°49' W 001°06'0 0.5
2019-May-15 07:00N 50°49' W 001°06'0 0.0
2019-May-15 06:30N 50°49' W 001°06'0 0.0
2019-May-15 06:00N 50°49' W 001°06'0 0.6
2019-May-15 05:30N 50°49' W 001°06'510.4
2019-May-15 05:00N 50°44' W 001°03'816.0
2019-May-15 04:30N 50°37' W 000°58'714.7
2019-May-15 04:00N 50°29' W 000°55'611.1
2019-May-15 03:29N 50°24' W 000°53'611.4
2019-May-15 02:56N 50°18' W 000°50'511.4
2019-May-15 02:30N 50°13' W 000°47'611.5
2019-May-15 01:57N 50°07' W 000°45'611.7
2019-May-15 01:28N 50°02' W 000°42'511.6
2019-May-15 01:00N 49°57' W 000°39'612.0
2019-May-15 00:30N 49°51' W 000°35'612.0
2019-May-15 00:00N 49°46' W 000°32'611.7
2019-May-14 23:30N 49°40' W 000°28'611.3
2019-May-14 23:00N 49°35' W 000°24'611.3
2019-May-14 22:30N 49°30' W 000°20'611.5
2019-May-14 22:00N 49°25' W 000°16'510.8
2019-May-14 21:30N 49°20' W 000°14'3 5.3
2019-May-14 21:00N 49°17' W 000°15'0 0.0
2019-May-14 20:30N 49°17' W 000°15'0 0.0
2019-May-14 20:00N 49°17' W 000°15'0 0.0
2019-May-14 19:30N 49°17' W 000°15'3 5.7
2019-May-14 19:00N 49°20' W 000°14'1019.5
2019-May-14 18:30N 49°29' W 000°20'1019.5
2019-May-14 18:00N 49°38' W 000°25'1019.5
2019-May-14 17:30N 49°47' W 000°31'1019.9
2019-May-14 17:00N 49°57' W 000°37'1020.6
2019-May-14 16:30N 50°06' W 000°43'1019.5
2019-May-14 16:00N 50°16' W 000°46'918.6
2019-May-14 15:30N 50°25' W 000°47'1020.1
2019-May-14 15:00N 50°33' W 000°55'918.6
2019-May-14 14:31N 50°42' W 000°59'714.7
2019-May-14 14:00N 50°48' W 001°07'1 2.1
2019-May-14 13:30N 50°49' W 001°06'0 0.0
2019-May-14 13:00N 50°49' W 001°06'0 0.0
2019-May-14 12:30N 50°49' W 001°06'0 0.8
2019-May-14 12:00N 50°49' W 001°06'611.2
2019-May-14 11:30N 50°44' W 001°02'816.0
2019-May-14 11:01N 50°36' W 000°57'917.7
2019-May-14 10:30N 50°28' W 000°53'918.0
2019-May-14 09:59N 50°19' W 000°49'919.4
2019-May-14 09:30N 50°11' W 000°41'1019.2
2019-May-14 09:00N 50°02' W 000°37'1019.4
2019-May-14 08:30N 49°53' W 000°31'1019.5
2019-May-14 08:00N 49°44' W 000°26'1019.2
2019-May-14 07:30N 49°34' W 000°22'1019.1
2019-May-14 07:01N 49°26' W 000°16'816.8
2019-May-14 06:31N 49°17' W 000°15'0 0.1
2019-May-14 06:00N 49°17' W 000°15'0 0.0
2019-May-14 05:30N 49°17' W 000°15'0 0.0
2019-May-14 05:00N 49°17' W 000°15'0 0.3
2019-May-14 04:30N 49°17' W 000°15'714.1
2019-May-14 04:01N 49°24' W 000°15'815.3
2019-May-14 03:31N 49°31' W 000°20'611.9
2019-May-14 03:00N 49°36' W 000°24'611.8
2019-May-14 02:30N 49°42' W 000°27'713.7
2019-May-14 02:00N 49°48' W 000°31'816.7
2019-May-14 01:30N 49°56' W 000°36'1816.0
2019-May-14 00:21N 50°13' W 000°49'1816.4
2019-May-13 23:16N 50°30' W 000°55'415.7
2019-May-13 23:00N 50°34' W 000°57'815.7
2019-May-13 22:31N 50°41' W 001°00'713.3
2019-May-13 22:00N 50°47' W 001°06'2 3.6
2019-May-13 21:30N 50°49' W 001°06'0 0.0
2019-May-13 21:00N 50°49' W 001°06'0 0.0
2019-May-13 20:30N 50°49' W 001°06'0 0.4
2019-May-13 20:01N 50°49' W 001°06'611.4
2019-May-13 19:31N 50°43' W 001°03'1019.3
2019-May-13 19:01N 50°35' W 000°56'1020.1
2019-May-13 18:31N 50°26' W 000°47'1019.6
2019-May-13 18:01N 50°17' W 000°42'1019.6
2019-May-13 17:30N 50°08' W 000°39'1019.3
2019-May-13 17:01N 49°58' W 000°35'1019.1
2019-May-13 16:30N 49°49' W 000°31'1019.1
2019-May-13 16:01N 49°40' W 000°27'1019.3
2019-May-13 15:31N 49°31' W 000°22'918.9
2019-May-13 15:01N 49°22' W 000°15'5 9.9
2019-May-13 14:30N 49°17' W 000°15'0 0.0
2019-May-13 14:00N 49°17' W 000°15'0 0.0
2019-May-13 13:30N 49°17' W 000°15'0 0.0
2019-May-13 13:00N 49°17' W 000°15'3 5.4
2019-May-13 12:30N 49°20' W 000°14'918.7
2019-May-13 12:00N 49°29' W 000°20'918.9
2019-May-13 11:30N 49°38' W 000°24'918.9
2019-May-13 11:00N 49°47' W 000°28'918.9
2019-May-13 10:30N 49°56' W 000°32'918.6
2019-May-13 10:00N 50°05' W 000°37'1018.5
2019-May-13 09:27N 50°14' W 000°42'1418.6
2019-May-13 08:43N 50°27' W 000°50'418.5
2019-May-13 08:30N 50°31' W 000°53'918.6
2019-May-13 08:00N 50°39' W 000°58'917.2
2019-May-13 07:30N 50°46' W 001°06'2 4.6
2019-May-13 07:00N 50°49' W 001°06'0 0.0
2019-May-13 06:30N 50°49' W 001°06'0 0.0
2019-May-13 06:00N 50°49' W 001°06'0 0.2
2019-May-13 05:31N 50°49' W 001°06'5 9.3
2019-May-13 05:00N 50°44' W 001°04'917.1
2019-May-13 04:31N 50°37' W 000°57'714.7
2019-May-13 04:00N 50°30' W 000°54'911.5
2019-May-13 03:13N 50°21' W 000°51'210.8
2019-May-13 03:00N 50°19' W 000°48'1911.1
2019-May-13 01:18N 50°02' W 000°37'311.5
2019-May-13 01:00N 49°59' W 000°35'611.4
2019-May-13 00:30N 49°53' W 000°33'611.4
2019-May-13 00:00N 49°48' W 000°30'611.6
2019-May-12 23:30N 49°43' W 000°26'612.0
2019-May-12 23:00N 49°37' W 000°22'611.1
2019-May-12 22:30N 49°32' W 000°20'611.8
2019-May-12 22:00N 49°26' W 000°17'611.7
2019-May-12 21:30N 49°21' W 000°14'3 6.7
2019-May-12 21:00N 49°17' W 000°15'0 0.0
2019-May-12 20:30N 49°17' W 000°15'0 0.0
2019-May-12 20:00N 49°17' W 000°15'0 0.0
2019-May-12 19:30N 49°17' W 000°15'2 3.8
2019-May-12 19:01N 49°19' W 000°15'917.7
2019-May-12 18:30N 49°28' W 000°19'918.6
2019-May-12 18:01N 49°37' W 000°23'918.8
2019-May-12 17:30N 49°46' W 000°27'1019.1
2019-May-12 17:00N 49°55' W 000°31'1019.4
2019-May-12 16:30N 50°04' W 000°35'2719.3
2019-May-12 15:04N 50°30' W 000°51'119.6
2019-May-12 15:00N 50°31' W 000°52'1019.2
2019-May-12 14:31N 50°39' W 000°59'816.4
2019-May-12 14:00N 50°46' W 001°06'2 4.5
2019-May-12 13:30N 50°49' W 001°06'0 0.0
2019-May-12 13:00N 50°49' W 001°06'0 0.0
2019-May-12 12:30N 50°49' W 001°06'1 1.2
2019-May-12 12:00N 50°49' W 001°07'612.3
2019-May-12 11:31N 50°43' W 001°01'816.3
2019-May-12 11:00N 50°36' W 000°58'917.8
2019-May-12 10:30N 50°27' W 000°57'2018.6
2019-May-12 09:26N 50°08' W 000°47'819.7
2019-May-12 09:01N 49°60' W 000°43'1019.8
2019-May-12 08:31N 49°51' W 000°37'1019.9
2019-May-12 08:01N 49°42' W 000°31'1019.8
2019-May-12 07:31N 49°33' W 000°23'1019.8
2019-May-12 07:01N 49°24' W 000°17'713.7
2019-May-12 06:30N 49°17' W 000°15'0 0.1
2019-May-12 06:00N 49°17' W 000°15'0 0.0
2019-May-12 05:30N 49°17' W 000°15'0 0.0
2019-May-12 05:00N 49°17' W 000°15'0 0.3
2019-May-12 04:30N 49°17' W 000°15'815.3
2019-May-12 04:01N 49°25' W 000°15'917.8
2019-May-12 03:30N 49°33' W 000°21'917.0
2019-May-12 03:00N 49°40' W 000°27'816.9
2019-May-12 02:31N 49°48' W 000°31'917.1
2019-May-12 02:01N 49°56' W 000°36'917.2
2019-May-12 01:31N 50°04' W 000°41'917.1
2019-May-12 01:00N 50°12' W 000°46'817.0
2019-May-12 00:31N 50°20' W 000°51'816.9
2019-May-12 00:00N 50°28' W 000°55'816.3
2019-May-11 23:30N 50°36' W 000°58'714.4
2019-May-11 23:01N 50°43' W 001°00'713.1
2019-May-11 22:31N 50°48' W 001°07'1 1.7
2019-May-11 22:00N 50°49' W 001°06'0 0.0
2019-May-11 21:30N 50°49' W 001°06'0 0.0
2019-May-11 21:00N 50°49' W 001°06'0 0.0
2019-May-11 20:31N 50°49' W 001°06'0 0.6
2019-May-11 20:00N 50°49' W 001°06'510.1
2019-May-11 19:30N 50°44' W 001°04'917.0
2019-May-11 19:00N 50°36' W 000°57'919.0
2019-May-11 18:31N 50°27' W 000°53'918.3
2019-May-11 18:01N 50°19' W 000°49'918.8
2019-May-11 17:31N 50°10' W 000°44'1019.1
2019-May-11 17:00N 50°01' W 000°39'1019.2
2019-May-11 16:30N 49°52' W 000°33'1019.2
2019-May-11 16:00N 49°43' W 000°27'1019.1
2019-May-11 15:30N 49°34' W 000°22'919.0
2019-May-11 15:00N 49°25' W 000°17'816.0
2019-May-11 14:31N 49°17' W 000°15'0 0.1
2019-May-11 14:01N 49°17' W 000°15'0 0.0
2019-May-11 13:31N 49°17' W 000°15'0 0.0
2019-May-11 13:01N 49°17' W 000°15'3 6.1
2019-May-11 12:31N 49°20' W 000°14'918.4
2019-May-11 12:01N 49°29' W 000°19'918.5
2019-May-11 11:31N 49°37' W 000°26'918.6
2019-May-11 11:00N 49°46' W 000°32'918.6
2019-May-11 10:31N 49°54' W 000°38'918.2
2019-May-11 10:00N 50°02' W 000°44'1019.2
2019-May-11 09:30N 50°12' W 000°48'1019.3
2019-May-11 09:00N 50°21' W 000°53'1019.1
2019-May-11 08:30N 50°30' W 000°57'919.3
2019-May-11 08:01N 50°39' W 000°58'816.3
2019-May-11 07:31N 50°46' W 001°05'3 5.2
2019-May-11 07:00N 50°49' W 001°06'0 0.0
2019-May-11 06:30N 50°49' W 001°06'0 0.0
2019-May-11 06:00N 50°49' W 001°06'0 0.5
2019-May-11 05:30N 50°49' W 001°06'510.1
2019-May-11 05:00N 50°44' W 001°03'816.8
2019-May-11 04:30N 50°36' W 000°58'815.4
2019-May-11 04:00N 50°29' W 000°54'2613.4
2019-May-11 02:06N 50°06' W 000°36'710.7
2019-May-11 01:25N 49°59' W 000°32'410.6
2019-May-11 01:01N 49°55' W 000°29'510.8
2019-May-11 00:30N 49°50' W 000°27'510.8
2019-May-11 00:01N 49°45' W 000°25'510.5
2019-May-10 23:31N 49°40' W 000°24'510.7
2019-May-10 23:01N 49°35' W 000°22'510.8
2019-May-10 22:30N 49°29' W 000°19'510.9
2019-May-10 22:01N 49°24' W 000°17'510.2
2019-May-10 21:31N 49°19' W 000°15'2 3.9
2019-May-10 21:01N 49°17' W 000°15'0 0.0
2019-May-10 20:31N 49°17' W 000°15'0 0.0
2019-May-10 20:01N 49°17' W 000°15'1 1.2
2019-May-10 19:30N 49°18' W 000°15'917.8
2019-May-10 19:00N 49°27' W 000°15'1019.1
2019-May-10 18:30N 49°36' W 000°20'1019.1
2019-May-10 18:00N 49°45' W 000°26'918.9
2019-May-10 17:30N 49°53' W 000°31'1019.0
2019-May-10 16:59N 50°02' W 000°37'919.1
2019-May-10 16:30N 50°11' W 000°43'1019.5
2019-May-10 16:00N 50°20' W 000°48'1019.8
2019-May-10 15:30N 50°29' W 000°53'1019.5
2019-May-10 15:00N 50°38' W 000°59'816.6
2019-May-10 14:30N 50°46' W 001°05'3 6.1
2019-May-10 14:00N 50°49' W 001°06'0 0.0
2019-May-10 13:30N 50°49' W 001°06'0 0.0
2019-May-10 13:00N 50°49' W 001°06'0 0.2
2019-May-10 12:30N 50°49' W 001°06'4 8.5
2019-May-10 12:01N 50°44' W 001°05'918.1
2019-May-10 11:30N 50°37' W 000°58'1019.3
2019-May-10 11:00N 50°27' W 000°53'1419.7
2019-May-10 10:19N 50°14' W 000°48'719.4
2019-May-10 09:56N 50°07' W 000°46'819.4
2019-May-10 09:30N 49°59' W 000°42'1019.5
2019-May-10 09:00N 49°50' W 000°36'1019.8
2019-May-10 08:30N 49°41' W 000°30'1020.0
2019-May-10 08:00N 49°32' W 000°23'1020.1
2019-May-10 07:30N 49°23' W 000°16'611.3
2019-May-10 07:00N 49°17' W 000°15'0 0.0
2019-May-10 06:30N 49°17' W 000°15'0 0.0
2019-May-10 06:00N 49°17' W 000°15'0 0.0
2019-May-10 05:30N 49°17' W 000°15'0 0.2
2019-May-10 05:00N 49°17' W 000°15'815.1
2019-May-10 04:31N 49°25' W 000°15'816.7
2019-May-10 04:01N 49°32' W 000°22'917.1
2019-May-10 03:31N 49°40' W 000°25'917.1
2019-May-10 03:00N 49°48' W 000°29'  
Track history (hours):
 
Tides and Currents Weather Stations Pressure Air Temp Water Temp Dewpoint Dewpoint Depression Visibility Wind Speed Wind Dir Waves Ship Positions

Normandie

Operator: Brittany Ferries

Last reported at 2019-May-20 02:25 UTC. Time now 2019-May-20 03:00 UTC.
Position N 50°10' W 000°41'.

Length 161 m; beam 27 m.

Type: Ship. MMSI: 227273000.

Date/timePositionNaut miles runAvg speedWind from/ knotsBaromVisibWave heightAir tempDewpointWater temp
2019-May-20 02:25N 50°10' W 000°41'712.0
2019-May-20 01:51N 50°04' W 000°37'412.3
2019-May-20 01:30N 50°00' W 000°33'612.0
2019-May-20 01:00N 49°55' W 000°29'611.8
2019-May-20 00:30N 49°50' W 000°26'611.4
2019-May-20 00:00N 49°44' W 000°22'611.0
2019-May-19 23:30N 49°39' W 000°20'611.2
2019-May-19 23:01N 49°33' W 000°19'611.2
2019-May-19 22:30N 49°28' W 000°17'511.0
2019-May-19 22:00N 49°23' W 000°16'510.5
2019-May-19 21:30N 49°17' W 000°15'0 0.1
2019-May-19 21:00N 49°17' W 000°15'0 0.0
2019-May-19 20:31N 49°17' W 000°15'0 0.0
2019-May-19 20:00N 49°17' W 000°15'0 0.0
2019-May-19 19:31N 49°17' W 000°15'3 6.9
2019-May-19 19:00N 49°21' W 000°14'918.0
2019-May-19 18:30N 49°29' W 000°20'918.2
2019-May-19 18:00N 49°38' W 000°25'918.1
2019-May-19 17:31N 49°46' W 000°29'918.8
2019-May-19 17:01N 49°55' W 000°33'1018.4
2019-May-19 16:29N 50°04' W 000°40'2018.3
2019-May-19 15:25N 50°22' W 000°52'918.8
2019-May-19 14:57N 50°30' W 000°55'818.9
2019-May-19 14:30N 50°38' W 000°59'917.6
2019-May-19 14:00N 50°46' W 001°06'3 5.3
2019-May-19 13:30N 50°49' W 001°06'0 0.0
2019-May-19 13:00N 50°49' W 001°06'0 0.0
2019-May-19 12:30N 50°49' W 001°06'0 0.5
2019-May-19 12:00N 50°49' W 001°06'611.8
2019-May-19 11:31N 50°43' W 001°02'1019.1
2019-May-19 11:00N 50°35' W 000°56'1019.5
2019-May-19 10:30N 50°25' W 000°52'1719.6
2019-May-19 09:38N 50°09' W 000°45'519.2
2019-May-19 09:23N 50°04' W 000°43'718.8
2019-May-19 09:00N 49°57' W 000°39'918.5
2019-May-19 08:30N 49°49' W 000°34'918.5
2019-May-19 08:00N 49°40' W 000°28'918.6
2019-May-19 07:30N 49°32' W 000°22'918.3
2019-May-19 07:00N 49°23' W 000°17'612.3
2019-May-19 06:30N 49°17' W 000°15'0 0.0
2019-May-19 06:00N 49°17' W 000°15'0 0.0
2019-May-19 05:30N 49°17' W 000°15'0 0.0
2019-May-19 05:00N 49°17' W 000°15'0 0.2
2019-May-19 04:30N 49°17' W 000°15'611.4
2019-May-19 04:01N 49°23' W 000°15'917.4
2019-May-19 03:31N 49°31' W 000°18'917.6
2019-May-19 03:01N 49°40' W 000°23'917.2
2019-May-19 02:31N 49°48' W 000°27'816.8
2019-May-19 02:01N 49°56' W 000°32'815.4
2019-May-19 01:31N 50°03' W 000°37'815.1
2019-May-19 01:00N 50°09' W 000°42'815.1
2019-May-19 00:30N 50°17' W 000°46'1215.8
2019-May-18 23:45N 50°28' W 000°52'415.4
2019-May-18 23:31N 50°31' W 000°54'815.5
2019-May-18 23:01N 50°38' W 000°58'714.9
2019-May-18 22:30N 50°45' W 001°05'4 7.9
2019-May-18 22:01N 50°49' W 001°06'0 0.0
2019-May-18 21:31N 50°49' W 001°06'0 0.0
2019-May-18 21:01N 50°49' W 001°06'0 0.0
2019-May-18 20:30N 50°49' W 001°06'1 1.6
2019-May-18 20:00N 50°48' W 001°07'713.3
2019-May-18 19:30N 50°42' W 001°02'917.0
2019-May-18 19:00N 50°35' W 000°56'816.1
2019-May-18 18:30N 50°27' W 000°52'816.7
2019-May-18 18:00N 50°19' W 000°48'1116.9
2019-May-18 17:20N 50°09' W 000°42'719.4
2019-May-18 17:00N 50°02' W 000°37'1019.6
2019-May-18 16:30N 49°53' W 000°32'1019.8
2019-May-18 16:00N 49°44' W 000°26'1019.4
2019-May-18 15:30N 49°35' W 000°21'918.8
2019-May-18 15:00N 49°26' W 000°17'816.7
2019-May-18 14:30N 49°18' W 000°15'1 1.4
2019-May-18 14:00N 49°17' W 000°15'0 0.0
2019-May-18 13:30N 49°17' W 000°15'0 0.0
2019-May-18 13:00N 49°17' W 000°15'5 9.1
2019-May-18 12:30N 49°22' W 000°14'917.9
2019-May-18 12:00N 49°31' W 000°17'917.2
2019-May-18 11:30N 49°39' W 000°21'917.5
2019-May-18 11:00N 49°47' W 000°26'917.8
2019-May-18 10:30N 49°55' W 000°31'4018.9
2019-May-18 08:24N 50°32' W 000°56'718.5
2019-May-18 08:01N 50°39' W 000°59'917.7
2019-May-18 07:30N 50°47' W 001°06'2 4.2
2019-May-18 07:00N 50°49' W 001°06'0 0.0
2019-May-18 06:30N 50°49' W 001°06'0 0.0
2019-May-18 06:00N 50°49' W 001°06'1 1.5
2019-May-18 05:30N 50°48' W 001°07'612.6
2019-May-18 05:00N 50°43' W 001°01'713.9
2019-May-18 04:30N 50°37' W 000°57'714.8
2019-May-18 04:00N 50°30' W 000°53'3111.7
2019-May-18 01:22N 50°00' W 000°39'412.1
2019-May-18 01:00N 49°56' W 000°37'611.8
2019-May-18 00:30N 49°51' W 000°34'611.5
2019-May-18 00:00N 49°45' W 000°32'611.1
2019-May-17 23:30N 49°40' W 000°30'611.1
2019-May-17 23:00N 49°34' W 000°27'510.8
2019-May-17 22:30N 49°30' W 000°23'510.6
2019-May-17 22:00N 49°25' W 000°18'510.7
2019-May-17 21:30N 49°21' W 000°14'3 6.6
2019-May-17 21:00N 49°17' W 000°15'0 0.0
2019-May-17 20:30N 49°17' W 000°15'0 0.0
2019-May-17 20:00N 49°17' W 000°15'0 0.0
2019-May-17 19:30N 49°17' W 000°15'713.3
2019-May-17 19:00N 49°24' W 000°15'1020.2
2019-May-17 18:30N 49°34' W 000°19'1021.0
2019-May-17 18:00N 49°43' W 000°25'1121.2
2019-May-17 17:30N 49°53' W 000°31'3619.8
2019-May-17 15:40N 50°27' W 000°53'318.4
2019-May-17 15:30N 50°30' W 000°53'918.1
2019-May-17 15:00N 50°38' W 000°58'815.6
2019-May-17 14:31N 50°45' W 001°05'4 7.8
2019-May-17 14:00N 50°49' W 001°06'0 0.0
2019-May-17 13:30N 50°49' W 001°06'0 0.0
2019-May-17 13:00N 50°49' W 001°06'0 0.0
2019-May-17 12:30N 50°49' W 001°06'0 0.2
2019-May-17 12:00N 50°49' W 001°06'611.5
2019-May-17 11:30N 50°43' W 001°03'918.7
2019-May-17 11:00N 50°35' W 000°56'1019.3
2019-May-17 10:30N 50°27' W 000°48'2518.7
2019-May-17 09:10N 50°03' W 000°35'318.4
2019-May-17 09:00N 50°00' W 000°33'918.8
2019-May-17 08:30N 49°51' W 000°29'1019.3
2019-May-17 08:00N 49°42' W 000°25'1019.2
2019-May-17 07:30N 49°33' W 000°21'919.0
2019-May-17 07:00N 49°24' W 000°16'713.3
2019-May-17 06:30N 49°17' W 000°15'0 0.0
2019-May-17 06:00N 49°17' W 000°15'0 0.0
2019-May-17 05:30N 49°17' W 000°15'0 0.0
2019-May-17 05:00N 49°17' W 000°15'0 0.2
2019-May-17 04:31N 49°17' W 000°15'714.9
2019-May-17 04:01N 49°25' W 000°15'917.1
2019-May-17 03:31N 49°33' W 000°19'917.1
2019-May-17 03:00N 49°41' W 000°25'917.2
2019-May-17 02:30N 49°48' W 000°31'1516.9
2019-May-17 01:38N 50°02' W 000°40'216.4
2019-May-17 01:30N 50°04' W 000°41'714.9
2019-May-17 01:00N 50°11' W 000°45'1715.3
2019-May-16 23:52N 50°27' W 000°53'515.1
2019-May-16 23:30N 50°33' W 000°55'815.4
2019-May-16 23:00N 50°40' W 000°59'713.8
2019-May-16 22:30N 50°46' W 001°05'3 6.2
2019-May-16 22:00N 50°49' W 001°06'0 0.0
2019-May-16 21:30N 50°49' W 001°06'0 0.0
2019-May-16 21:00N 50°49' W 001°06'0 0.0
2019-May-16 20:30N 50°49' W 001°06'2 3.6
2019-May-16 20:00N 50°47' W 001°06'917.2
2019-May-16 19:31N 50°39' W 000°59'1019.5
2019-May-16 19:01N 50°30' W 000°55'1019.0
2019-May-16 18:31N 50°21' W 000°50'1019.1
2019-May-16 18:01N 50°12' W 000°46'918.5
2019-May-16 17:31N 50°03' W 000°40'918.4
2019-May-16 17:00N 49°55' W 000°35'918.3
2019-May-16 16:31N 49°46' W 000°30'918.4
2019-May-16 16:01N 49°38' W 000°26'918.8
2019-May-16 15:31N 49°29' W 000°20'918.6
2019-May-16 15:01N 49°20' W 000°14'3 6.1
2019-May-16 14:30N 49°17' W 000°15'0 0.0
2019-May-16 14:00N 49°17' W 000°15'0 0.0
2019-May-16 13:30N 49°17' W 000°15'0 0.0
2019-May-16 13:00N 49°17' W 000°15'3 5.4
2019-May-16 12:31N 49°20' W 000°14'918.3
2019-May-16 12:00N 49°29' W 000°20'1019.5
2019-May-16 11:30N 49°38' W 000°25'1019.7
2019-May-16 11:00N 49°47' W 000°30'1019.3
2019-May-16 10:30N 49°56' W 000°34'1019.5
2019-May-16 10:00N 50°06' W 000°39'1019.7
2019-May-16 09:30N 50°15' W 000°43'1019.8
2019-May-16 09:00N 50°24' W 000°48'1020.0
2019-May-16 08:30N 50°34' W 000°53'918.8
2019-May-16 08:01N 50°42' W 001°01'714.5
2019-May-16 07:30N 50°48' W 001°07'1 1.7
2019-May-16 07:00N 50°49' W 001°06'0 0.0
2019-May-16 06:30N 50°49' W 001°06'0 0.0
2019-May-16 06:00N 50°49' W 001°06'1 1.3
2019-May-16 05:31N 50°48' W 001°07'611.2
2019-May-16 05:00N 50°44' W 001°02'815.2
2019-May-16 04:30N 50°37' W 000°58'713.9
2019-May-16 04:00N 50°30' W 000°54'610.9
2019-May-16 03:30N 50°25' W 000°52'611.1
2019-May-16 03:00N 50°19' W 000°49'611.1
2019-May-16 02:30N 50°14' W 000°48'611.2
2019-May-16 02:00N 50°08' W 000°47'611.5
2019-May-16 01:30N 50°03' W 000°44'611.6
2019-May-16 01:00N 49°57' W 000°41'611.7
2019-May-16 00:30N 49°52' W 000°37'611.8
2019-May-16 00:00N 49°47' W 000°33'611.6
2019-May-15 23:30N 49°42' W 000°29'611.2
2019-May-15 23:00N 49°37' W 000°25'611.6
2019-May-15 22:30N 49°32' W 000°21'611.6
2019-May-15 22:00N 49°26' W 000°17'611.3
2019-May-15 21:30N 49°21' W 000°15'4 6.8
2019-May-15 20:58N 49°17' W 000°15'0 0.0
2019-May-15 20:28N 49°17' W 000°15'0 0.0
2019-May-15 19:58N 49°17' W 000°15'0 0.0
2019-May-15 19:28N 49°17' W 000°15'0 0.0
2019-May-15 18:58N 49°17' W 000°15'0 0.0
2019-May-15 18:28N 49°17' W 000°15'0 0.0
2019-May-15 17:58N 49°17' W 000°15'0 0.0
2019-May-15 17:28N 49°17' W 000°15'0 0.0
2019-May-15 16:58N 49°17' W 000°15'0 0.0
2019-May-15 16:28N 49°17' W 000°15'0 0.0
2019-May-15 15:58N 49°17' W 000°15'0 0.0
2019-May-15 15:28N 49°17' W 000°15'0 0.0
2019-May-15 14:58N 49°17' W 000°15'0 0.0
2019-May-15 14:28N 49°17' W 000°15'0 0.0
2019-May-15 13:58N 49°17' W 000°15'0 0.0
2019-May-15 13:28N 49°17' W 000°15'0 0.2
2019-May-15 13:00N 49°17' W 000°15'612.2
2019-May-15 12:30N 49°23' W 000°15'1019.3
2019-May-15 12:00N 49°33' W 000°19'1019.3
2019-May-15 11:30N 49°42' W 000°25'1019.0
2019-May-15 11:00N 49°51' W 000°29'918.9
2019-May-15 10:30N 49°60' W 000°33'1019.1
2019-May-15 10:00N 50°09' W 000°37'918.9
2019-May-15 09:30N 50°17' W 000°44'1019.5
2019-May-15 08:59N 50°27' W 000°51'919.3
2019-May-15 08:30N 50°35' W 000°55'918.0
2019-May-15 08:00N 50°43' W 001°02'612.0
2019-May-15 07:30N 50°49' W 001°06'0 0.5
2019-May-15 07:00N 50°49' W 001°06'0 0.0
2019-May-15 06:30N 50°49' W 001°06'0 0.0
2019-May-15 06:00N 50°49' W 001°06'0 0.6
2019-May-15 05:30N 50°49' W 001°06'510.4
2019-May-15 05:00N 50°44' W 001°03'816.0
2019-May-15 04:30N 50°37' W 000°58'714.7
2019-May-15 04:00N 50°29' W 000°55'611.1
2019-May-15 03:29N 50°24' W 000°53'611.4
2019-May-15 02:56N 50°18' W 000°50'511.4
2019-May-15 02:30N 50°13' W 000°47'611.5
2019-May-15 01:57N 50°07' W 000°45'611.7
2019-May-15 01:28N 50°02' W 000°42'511.6
2019-May-15 01:00N 49°57' W 000°39'612.0
2019-May-15 00:30N 49°51' W 000°35'612.0
2019-May-15 00:00N 49°46' W 000°32'611.7
2019-May-14 23:30N 49°40' W 000°28'611.3
2019-May-14 23:00N 49°35' W 000°24'611.3
2019-May-14 22:30N 49°30' W 000°20'611.5
2019-May-14 22:00N 49°25' W 000°16'510.8
2019-May-14 21:30N 49°20' W 000°14'3 5.3
2019-May-14 21:00N 49°17' W 000°15'0 0.0
2019-May-14 20:30N 49°17' W 000°15'0 0.0
2019-May-14 20:00N 49°17' W 000°15'0 0.0
2019-May-14 19:30N 49°17' W 000°15'3 5.7
2019-May-14 19:00N 49°20' W 000°14'1019.5
2019-May-14 18:30N 49°29' W 000°20'1019.5
2019-May-14 18:00N 49°38' W 000°25'1019.5
2019-May-14 17:30N 49°47' W 000°31'1019.9
2019-May-14 17:00N 49°57' W 000°37'1020.6
2019-May-14 16:30N 50°06' W 000°43'1019.5
2019-May-14 16:00N 50°16' W 000°46'918.6
2019-May-14 15:30N 50°25' W 000°47'1020.1
2019-May-14 15:00N 50°33' W 000°55'918.6
2019-May-14 14:31N 50°42' W 000°59'714.7
2019-May-14 14:00N 50°48' W 001°07'1 2.1
2019-May-14 13:30N 50°49' W 001°06'0 0.0
2019-May-14 13:00N 50°49' W 001°06'0 0.0
2019-May-14 12:30N 50°49' W 001°06'0 0.8
2019-May-14 12:00N 50°49' W 001°06'611.2
2019-May-14 11:30N 50°44' W 001°02'816.0
2019-May-14 11:01N 50°36' W 000°57'917.7
2019-May-14 10:30N 50°28' W 000°53'918.0
2019-May-14 09:59N 50°19' W 000°49'919.4
2019-May-14 09:30N 50°11' W 000°41'1019.2
2019-May-14 09:00N 50°02' W 000°37'1019.4
2019-May-14 08:30N 49°53' W 000°31'1019.5
2019-May-14 08:00N 49°44' W 000°26'1019.2
2019-May-14 07:30N 49°34' W 000°22'1019.1
2019-May-14 07:01N 49°26' W 000°16'816.8
2019-May-14 06:31N 49°17' W 000°15'0 0.1
2019-May-14 06:00N 49°17' W 000°15'0 0.0
2019-May-14 05:30N 49°17' W 000°15'0 0.0
2019-May-14 05:00N 49°17' W 000°15'0 0.3
2019-May-14 04:30N 49°17' W 000°15'714.1
2019-May-14 04:01N 49°24' W 000°15'815.3
2019-May-14 03:31N 49°31' W 000°20'611.9
2019-May-14 03:00N 49°36' W 000°24'611.8
2019-May-14 02:30N 49°42' W 000°27'713.7
2019-May-14 02:00N 49°48' W 000°31'816.7
2019-May-14 01:30N 49°56' W 000°36'1816.0
2019-May-14 00:21N 50°13' W 000°49'1816.4
2019-May-13 23:16N 50°30' W 000°55'415.7
2019-May-13 23:00N 50°34' W 000°57'815.7
2019-May-13 22:31N 50°41' W 001°00'713.3
2019-May-13 22:00N 50°47' W 001°06'2 3.6
2019-May-13 21:30N 50°49' W 001°06'0 0.0
2019-May-13 21:00N 50°49' W 001°06'0 0.0
2019-May-13 20:30N 50°49' W 001°06'0 0.4
2019-May-13 20:01N 50°49' W 001°06'611.4
2019-May-13 19:31N 50°43' W 001°03'1019.3
2019-May-13 19:01N 50°35' W 000°56'1020.1
2019-May-13 18:31N 50°26' W 000°47'1019.6
2019-May-13 18:01N 50°17' W 000°42'1019.6
2019-May-13 17:30N 50°08' W 000°39'1019.3
2019-May-13 17:01N 49°58' W 000°35'1019.1
2019-May-13 16:30N 49°49' W 000°31'1019.1
2019-May-13 16:01N 49°40' W 000°27'1019.3
2019-May-13 15:31N 49°31' W 000°22'918.9
2019-May-13 15:01N 49°22' W 000°15'5 9.9
2019-May-13 14:30N 49°17' W 000°15'0 0.0
2019-May-13 14:00N 49°17' W 000°15'0 0.0
2019-May-13 13:30N 49°17' W 000°15'0 0.0
2019-May-13 13:00N 49°17' W 000°15'3 5.4
2019-May-13 12:30N 49°20' W 000°14'918.7
2019-May-13 12:00N 49°29' W 000°20'918.9
2019-May-13 11:30N 49°38' W 000°24'918.9
2019-May-13 11:00N 49°47' W 000°28'918.9
2019-May-13 10:30N 49°56' W 000°32'918.6
2019-May-13 10:00N 50°05' W 000°37'1018.5
2019-May-13 09:27N 50°14' W 000°42'1418.6
2019-May-13 08:43N 50°27' W 000°50'418.5
2019-May-13 08:30N 50°31' W 000°53'918.6
2019-May-13 08:00N 50°39' W 000°58'917.2
2019-May-13 07:30N 50°46' W 001°06'2 4.6
2019-May-13 07:00N 50°49' W 001°06'0 0.0
2019-May-13 06:30N 50°49' W 001°06'0 0.0
2019-May-13 06:00N 50°49' W 001°06'0 0.2
2019-May-13 05:31N 50°49' W 001°06'5 9.3
2019-May-13 05:00N 50°44' W 001°04'917.1
2019-May-13 04:31N 50°37' W 000°57'714.7
2019-May-13 04:00N 50°30' W 000°54'911.5
2019-May-13 03:13N 50°21' W 000°51'210.8
2019-May-13 03:00N 50°19' W 000°48'1911.1
2019-May-13 01:18N 50°02' W 000°37'311.5
2019-May-13 01:00N 49°59' W 000°35'611.4
2019-May-13 00:30N 49°53' W 000°33'611.4
2019-May-13 00:00N 49°48' W 000°30'611.6
2019-May-12 23:30N 49°43' W 000°26'612.0
2019-May-12 23:00N 49°37' W 000°22'611.1
2019-May-12 22:30N 49°32' W 000°20'611.8
2019-May-12 22:00N 49°26' W 000°17'611.7
2019-May-12 21:30N 49°21' W 000°14'3 6.7
2019-May-12 21:00N 49°17' W 000°15'0 0.0
2019-May-12 20:30N 49°17' W 000°15'0 0.0
2019-May-12 20:00N 49°17' W 000°15'0 0.0
2019-May-12 19:30N 49°17' W 000°15'2 3.8
2019-May-12 19:01N 49°19' W 000°15'917.7
2019-May-12 18:30N 49°28' W 000°19'918.6
2019-May-12 18:01N 49°37' W 000°23'918.8
2019-May-12 17:30N 49°46' W 000°27'1019.1
2019-May-12 17:00N 49°55' W 000°31'1019.4
2019-May-12 16:30N 50°04' W 000°35'2719.3
2019-May-12 15:04N 50°30' W 000°51'119.6
2019-May-12 15:00N 50°31' W 000°52'1019.2
2019-May-12 14:31N 50°39' W 000°59'816.4
2019-May-12 14:00N 50°46' W 001°06'2 4.5
2019-May-12 13:30N 50°49' W 001°06'0 0.0
2019-May-12 13:00N 50°49' W 001°06'0 0.0
2019-May-12 12:30N 50°49' W 001°06'1 1.2
2019-May-12 12:00N 50°49' W 001°07'612.3
2019-May-12 11:31N 50°43' W 001°01'816.3
2019-May-12 11:00N 50°36' W 000°58'917.8
2019-May-12 10:30N 50°27' W 000°57'2018.6
2019-May-12 09:26N 50°08' W 000°47'819.7
2019-May-12 09:01N 49°60' W 000°43'1019.8
2019-May-12 08:31N 49°51' W 000°37'1019.9
2019-May-12 08:01N 49°42' W 000°31'1019.8
2019-May-12 07:31N 49°33' W 000°23'1019.8
2019-May-12 07:01N 49°24' W 000°17'713.7
2019-May-12 06:30N 49°17' W 000°15'0 0.1
2019-May-12 06:00N 49°17' W 000°15'0 0.0
2019-May-12 05:30N 49°17' W 000°15'0 0.0
2019-May-12 05:00N 49°17' W 000°15'0 0.3
2019-May-12 04:30N 49°17' W 000°15'815.3
2019-May-12 04:01N 49°25' W 000°15'917.8
2019-May-12 03:30N 49°33' W 000°21'917.0
2019-May-12 03:00N 49°40' W 000°27'816.9
2019-May-12 02:31N 49°48' W 000°31'917.1
2019-May-12 02:01N 49°56' W 000°36'917.2
2019-May-12 01:31N 50°04' W 000°41'917.1
2019-May-12 01:00N 50°12' W 000°46'817.0
2019-May-12 00:31N 50°20' W 000°51'816.9
2019-May-12 00:00N 50°28' W 000°55'816.3
2019-May-11 23:30N 50°36' W 000°58'714.4
2019-May-11 23:01N 50°43' W 001°00'713.1
2019-May-11 22:31N 50°48' W 001°07'1 1.7
2019-May-11 22:00N 50°49' W 001°06'0 0.0
2019-May-11 21:30N 50°49' W 001°06'0 0.0
2019-May-11 21:00N 50°49' W 001°06'0 0.0
2019-May-11 20:31N 50°49' W 001°06'0 0.6
2019-May-11 20:00N 50°49' W 001°06'510.1
2019-May-11 19:30N 50°44' W 001°04'917.0
2019-May-11 19:00N 50°36' W 000°57'919.0
2019-May-11 18:31N 50°27' W 000°53'918.3
2019-May-11 18:01N 50°19' W 000°49'918.8
2019-May-11 17:31N 50°10' W 000°44'1019.1
2019-May-11 17:00N 50°01' W 000°39'1019.2
2019-May-11 16:30N 49°52' W 000°33'1019.2
2019-May-11 16:00N 49°43' W 000°27'1019.1
2019-May-11 15:30N 49°34' W 000°22'919.0
2019-May-11 15:00N 49°25' W 000°17'816.0
2019-May-11 14:31N 49°17' W 000°15'0 0.1
2019-May-11 14:01N 49°17' W 000°15'0 0.0
2019-May-11 13:31N 49°17' W 000°15'0 0.0
2019-May-11 13:01N 49°17' W 000°15'3 6.1
2019-May-11 12:31N 49°20' W 000°14'918.4
2019-May-11 12:01N 49°29' W 000°19'918.5
2019-May-11 11:31N 49°37' W 000°26'918.6
2019-May-11 11:00N 49°46' W 000°32'918.6
2019-May-11 10:31N 49°54' W 000°38'918.2
2019-May-11 10:00N 50°02' W 000°44'1019.2
2019-May-11 09:30N 50°12' W 000°48'1019.3
2019-May-11 09:00N 50°21' W 000°53'1019.1
2019-May-11 08:30N 50°30' W 000°57'919.3
2019-May-11 08:01N 50°39' W 000°58'816.3
2019-May-11 07:31N 50°46' W 001°05'3 5.2
2019-May-11 07:00N 50°49' W 001°06'0 0.0
2019-May-11 06:30N 50°49' W 001°06'0 0.0
2019-May-11 06:00N 50°49' W 001°06'0 0.5
2019-May-11 05:30N 50°49' W 001°06'510.1
2019-May-11 05:00N 50°44' W 001°03'816.8
2019-May-11 04:30N 50°36' W 000°58'815.4
2019-May-11 04:00N 50°29' W 000°54'2613.4
2019-May-11 02:06N 50°06' W 000°36'710.7
2019-May-11 01:25N 49°59' W 000°32'410.6
2019-May-11 01:01N 49°55' W 000°29'510.8
2019-May-11 00:30N 49°50' W 000°27'510.8
2019-May-11 00:01N 49°45' W 000°25'510.5
2019-May-10 23:31N 49°40' W 000°24'510.7
2019-May-10 23:01N 49°35' W 000°22'510.8
2019-May-10 22:30N 49°29' W 000°19'510.9
2019-May-10 22:01N 49°24' W 000°17'510.2
2019-May-10 21:31N 49°19' W 000°15'2 3.9
2019-May-10 21:01N 49°17' W 000°15'0 0.0
2019-May-10 20:31N 49°17' W 000°15'0 0.0
2019-May-10 20:01N 49°17' W 000°15'1 1.2
2019-May-10 19:30N 49°18' W 000°15'917.8
2019-May-10 19:00N 49°27' W 000°15'1019.1
2019-May-10 18:30N 49°36' W 000°20'1019.1
2019-May-10 18:00N 49°45' W 000°26'918.9
2019-May-10 17:30N 49°53' W 000°31'1019.0
2019-May-10 16:59N 50°02' W 000°37'919.1
2019-May-10 16:30N 50°11' W 000°43'1019.5
2019-May-10 16:00N 50°20' W 000°48'1019.8
2019-May-10 15:30N 50°29' W 000°53'1019.5
2019-May-10 15:00N 50°38' W 000°59'816.6
2019-May-10 14:30N 50°46' W 001°05'3 6.1
2019-May-10 14:00N 50°49' W 001°06'0 0.0
2019-May-10 13:30N 50°49' W 001°06'0 0.0
2019-May-10 13:00N 50°49' W 001°06'0 0.2
2019-May-10 12:30N 50°49' W 001°06'4 8.5
2019-May-10 12:01N 50°44' W 001°05'918.1
2019-May-10 11:30N 50°37' W 000°58'1019.3
2019-May-10 11:00N 50°27' W 000°53'1419.7
2019-May-10 10:19N 50°14' W 000°48'719.4
2019-May-10 09:56N 50°07' W 000°46'819.4
2019-May-10 09:30N 49°59' W 000°42'1019.5
2019-May-10 09:00N 49°50' W 000°36'1019.8
2019-May-10 08:30N 49°41' W 000°30'1020.0
2019-May-10 08:00N 49°32' W 000°23'1020.1
2019-May-10 07:30N 49°23' W 000°16'611.3
2019-May-10 07:00N 49°17' W 000°15'0 0.0
2019-May-10 06:30N 49°17' W 000°15'0 0.0
2019-May-10 06:00N 49°17' W 000°15'0 0.0
2019-May-10 05:30N 49°17' W 000°15'0 0.2
2019-May-10 05:00N 49°17' W 000°15'815.1
2019-May-10 04:31N 49°25' W 000°15'816.7
2019-May-10 04:01N 49°32' W 000°22'917.1
2019-May-10 03:31N 49°40' W 000°25'917.1
2019-May-10 03:00N 49°48' W 000°29'  

Dump ship's entire track history